createdAt,value
2022-12-05T00:01:54.855Z,5.43
2022-12-05T00:04:23.182Z,5.60
2022-12-05T00:06:52.827Z,5.22
2022-12-05T00:09:21.035Z,5.55
2022-12-05T00:11:49.113Z,6.28
2022-12-05T00:14:17.205Z,5.93
2022-12-05T00:16:45.897Z,6.53
2022-12-05T00:19:16.409Z,5.70
2022-12-05T00:21:45.313Z,6.97
2022-12-05T00:24:16.761Z,7.65
2022-12-05T00:29:13.686Z,5.90
2022-12-05T00:31:42.133Z,4.85
2022-12-05T00:34:10.375Z,4.47
2022-12-05T00:36:38.967Z,4.43
2022-12-05T00:39:09.303Z,4.63
2022-12-05T00:41:39.198Z,4.15
2022-12-05T00:44:07.493Z,4.70
2022-12-05T00:46:36.738Z,4.68
2022-12-05T00:49:06.919Z,4.68
2022-12-05T00:51:36.898Z,4.22
2022-12-05T00:54:08.906Z,4.65
2022-12-05T00:56:38.727Z,4.00
2022-12-05T00:59:07.860Z,3.60
2022-12-05T01:01:38.142Z,4.15
2022-12-05T01:04:08.427Z,3.92
2022-12-05T01:06:36.646Z,3.72
2022-12-05T01:09:06.686Z,4.50
2022-12-05T01:11:40.799Z,2.90
2022-12-05T01:14:11.529Z,3.70
2022-12-05T01:16:41.053Z,3.38
2022-12-05T01:19:13.163Z,3.33
2022-12-05T01:21:41.303Z,3.33
2022-12-05T01:24:10.049Z,4.15
2022-12-05T01:26:38.630Z,4.28
2022-12-05T01:29:07.178Z,3.30
2022-12-05T01:31:38.619Z,3.05
2022-12-05T01:36:36.027Z,3.25
2022-12-05T01:39:04.900Z,2.83
2022-12-05T01:41:35.791Z,2.75
2022-12-05T01:44:06.248Z,2.35
2022-12-05T01:46:38.165Z,2.50
2022-12-05T01:49:10.932Z,2.88
2022-12-05T01:51:41.497Z,2.55
2022-12-05T01:54:11.641Z,3.07
2022-12-05T01:56:43.294Z,3.00
2022-12-05T01:59:12.921Z,2.90
2022-12-05T02:01:42.756Z,2.83
2022-12-05T02:04:11.976Z,2.97
2022-12-05T02:06:40.227Z,2.78
2022-12-05T02:09:08.536Z,2.60
2022-12-05T02:11:43.085Z,3.55
2022-12-05T02:14:21.972Z,3.35
2022-12-05T02:16:59.827Z,2.90
2022-12-05T02:20:08.490Z,3.08
2022-12-05T02:23:04.995Z,2.70
2022-12-05T02:26:11.403Z,2.80
2022-12-05T02:29:04.381Z,2.55
2022-12-05T02:31:38.389Z,4.05
2022-12-05T02:34:11.852Z,2.70
2022-12-05T02:36:45.924Z,2.65
2022-12-05T02:39:18.967Z,3.28
2022-12-05T02:41:52.151Z,3.40
2022-12-05T02:44:29.492Z,2.95
2022-12-05T02:47:01.436Z,2.80
2022-12-05T02:49:34.931Z,2.85
2022-12-05T02:52:06.002Z,2.38
2022-12-05T02:54:39.336Z,2.92
2022-12-05T02:57:08.695Z,3.88
2022-12-05T02:59:37.753Z,3.58
2022-12-05T03:02:09.239Z,3.85
2022-12-05T03:07:10.178Z,4.28
2022-12-05T03:09:41.574Z,4.53
2022-12-05T03:12:14.356Z,3.58
2022-12-05T03:14:47.589Z,3.90
2022-12-05T03:17:23.552Z,3.60
2022-12-05T03:19:58.615Z,4.95
2022-12-05T03:22:33.976Z,4.20
2022-12-05T03:25:03.603Z,3.20
2022-12-05T03:27:41.243Z,4.30
2022-12-05T03:30:11.776Z,5.00
2022-12-05T03:32:46.823Z,5.07
2022-12-05T03:35:22.629Z,5.05
2022-12-05T03:37:56.844Z,4.35
2022-12-05T03:40:33.391Z,4.63
2022-12-05T03:43:10.229Z,4.60
2022-12-05T03:45:43.512Z,4.60
2022-12-05T03:48:21.433Z,4.47
2022-12-05T03:50:53.769Z,4.68
2022-12-05T03:53:27.030Z,4.47
2022-12-05T03:56:02.904Z,4.53
2022-12-05T03:58:37.402Z,4.88
2022-12-05T04:01:08.210Z,4.15
2022-12-05T04:03:43.476Z,5.07
2022-12-05T04:06:18.804Z,5.20
2022-12-05T04:08:52.215Z,5.13
2022-12-05T04:11:24.626Z,5.15
2022-12-05T04:13:56.042Z,4.70
2022-12-05T04:19:19.175Z,3.70
2022-12-05T04:21:50.249Z,3.50
2022-12-05T04:24:39.798Z,3.72
2022-12-05T04:27:16.901Z,3.28
2022-12-05T04:29:54.414Z,4.05
2022-12-05T04:32:27.715Z,3.47
2022-12-05T04:35:02.860Z,4.78
2022-12-05T04:37:36.872Z,4.97
2022-12-05T04:40:11.188Z,4.75
2022-12-05T04:42:42.761Z,4.80
2022-12-05T04:45:15.153Z,4.07
2022-12-05T04:47:46.391Z,3.63
2022-12-05T04:50:17.963Z,3.45
2022-12-05T04:52:51.611Z,4.15
2022-12-05T04:55:26.111Z,2.50
2022-12-05T04:58:05.741Z,2.53
2022-12-05T05:00:39.805Z,2.20
2022-12-05T05:03:14.177Z,2.42
2022-12-05T05:05:48.613Z,3.10
2022-12-05T05:08:21.597Z,4.07
2022-12-05T05:10:59.369Z,3.65
2022-12-05T05:13:27.719Z,3.53
2022-12-05T05:15:55.916Z,5.28
2022-12-05T05:18:24.099Z,3.63
2022-12-05T05:20:53.745Z,2.63
2022-12-05T05:23:21.875Z,2.67
2022-12-05T05:25:54.624Z,2.80
2022-12-05T05:28:23.547Z,3.10
2022-12-05T05:30:51.929Z,3.53
2022-12-05T05:33:20.173Z,3.90
2022-12-05T05:35:48.306Z,3.30
2022-12-05T05:38:17.847Z,3.90
2022-12-05T05:40:46.015Z,3.78
2022-12-05T05:43:14.178Z,3.45
2022-12-05T05:45:42.293Z,3.45
2022-12-05T05:48:10.351Z,3.35
2022-12-05T05:50:38.592Z,3.70
2022-12-05T05:53:06.728Z,5.07
2022-12-05T05:55:36.139Z,3.30
2022-12-05T05:58:04.212Z,3.13
2022-12-05T06:00:32.332Z,3.10
2022-12-05T06:03:00.633Z,3.45
2022-12-05T06:05:28.871Z,2.50
2022-12-05T06:07:57.011Z,3.03
2022-12-05T06:10:25.205Z,2.63
2022-12-05T06:12:54.686Z,2.63
2022-12-05T06:15:23.255Z,3.22
2022-12-05T06:17:51.495Z,2.97
2022-12-05T06:20:19.824Z,2.70
2022-12-05T06:22:47.899Z,2.28
2022-12-05T06:25:16.051Z,2.17
2022-12-05T06:27:44.171Z,2.67
2022-12-05T06:30:14.555Z,2.85
2022-12-05T06:32:42.726Z,3.80
2022-12-05T06:35:15.832Z,3.53
2022-12-05T06:37:44.467Z,4.00
2022-12-05T06:40:13.687Z,2.83
2022-12-05T06:42:41.735Z,3.10
2022-12-05T06:45:10.750Z,2.50
2022-12-05T06:47:40.304Z,2.03
2022-12-05T06:50:09.800Z,2.88
2022-12-05T06:52:37.907Z,2.70
2022-12-05T06:55:07.000Z,2.38
2022-12-05T06:57:35.307Z,2.90
2022-12-05T07:00:17.874Z,2.35
2022-12-05T07:02:47.640Z,1.98
2022-12-05T07:05:15.759Z,1.50
2022-12-05T07:07:43.881Z,1.63
2022-12-05T07:10:12.026Z,2.40
2022-12-05T07:12:40.130Z,1.77
2022-12-05T07:15:09.143Z,2.67
2022-12-05T07:17:39.153Z,3.03
2022-12-05T07:20:10.501Z,2.40
2022-12-05T07:22:39.041Z,2.13
2022-12-05T07:25:07.831Z,3.28
2022-12-05T07:27:35.970Z,1.65
2022-12-05T07:30:04.321Z,2.05
2022-12-05T07:32:34.482Z,1.90
2022-12-05T07:35:02.784Z,2.20
2022-12-05T07:37:32.244Z,2.38
2022-12-05T07:40:00.749Z,2.00
2022-12-05T07:42:29.291Z,2.50
2022-12-05T07:44:57.473Z,2.17
2022-12-05T07:47:25.594Z,2.90
2022-12-05T07:49:53.634Z,2.67
2022-12-05T07:52:21.731Z,2.00
2022-12-05T07:54:51.218Z,2.25
2022-12-05T07:57:19.281Z,2.22
2022-12-05T07:59:47.632Z,2.47
2022-12-05T08:02:15.847Z,2.58
2022-12-05T08:04:44.050Z,5.97
2022-12-05T08:07:12.363Z,8.05
2022-12-05T08:09:40.476Z,4.80
2022-12-05T08:12:10.117Z,8.02
2022-12-05T08:14:38.233Z,3.03
2022-12-05T08:17:06.459Z,2.03
2022-12-05T08:19:34.753Z,1.65
2022-12-05T08:22:02.862Z,3.70
2022-12-05T08:24:31.025Z,2.22
2022-12-05T08:26:59.258Z,1.83
2022-12-05T08:29:28.834Z,1.50
2022-12-05T08:31:57.037Z,1.20
2022-12-05T08:34:25.185Z,1.50
2022-12-05T08:36:53.389Z,1.40
2022-12-05T08:39:21.772Z,1.63
2022-12-05T08:41:50.793Z,1.60
2022-12-05T08:44:19.495Z,1.90
2022-12-05T08:46:51.196Z,1.50
2022-12-05T08:49:20.365Z,2.78
2022-12-05T08:51:48.633Z,2.22
2022-12-05T08:54:16.829Z,1.65
2022-12-05T08:56:45.082Z,1.35
2022-12-05T08:59:13.387Z,1.88
2022-12-05T09:01:42.369Z,1.83
2022-12-05T09:04:12.596Z,1.10
2022-12-05T09:06:42.035Z,1.70
2022-12-05T09:09:12.614Z,0.80
2022-12-05T09:11:46.695Z,1.10
2022-12-05T09:14:15.287Z,1.63
2022-12-05T09:16:45.897Z,1.35
2022-12-05T09:19:17.879Z,0.90
2022-12-05T09:21:46.460Z,1.95
2022-12-05T09:24:15.614Z,1.42
2022-12-05T09:26:44.119Z,1.83
2022-12-05T09:29:17.207Z,3.45
2022-12-05T09:31:47.928Z,1.50
2022-12-05T09:34:18.647Z,2.22
2022-12-05T09:36:49.945Z,2.30
2022-12-05T09:39:18.072Z,1.73
2022-12-05T09:42:06.347Z,1.70
2022-12-05T09:44:43.403Z,1.55
2022-12-05T09:47:22.148Z,1.27
2022-12-05T09:49:55.027Z,1.80
2022-12-05T09:52:28.211Z,1.70
2022-12-05T09:54:57.384Z,1.10
2022-12-05T09:57:34.218Z,1.08
2022-12-05T10:00:04.128Z,0.85
2022-12-05T10:02:45.517Z,1.35
2022-12-05T10:05:20.732Z,1.30
2022-12-05T10:07:57.337Z,1.65
2022-12-05T10:10:41.521Z,1.38
2022-12-05T10:13:30.336Z,1.20
2022-12-05T10:16:02.141Z,1.88
2022-12-05T10:18:38.545Z,0.77
2022-12-05T10:21:17.349Z,0.82
2022-12-05T10:23:58.084Z,1.23
2022-12-05T10:26:31.471Z,0.93
2022-12-05T10:29:09.167Z,1.30
2022-12-05T10:31:40.379Z,1.63
2022-12-05T10:34:16.470Z,1.35
2022-12-05T10:36:56.440Z,2.83
2022-12-05T10:39:24.733Z,2.67
2022-12-05T10:41:53.045Z,1.95
2022-12-05T10:44:21.305Z,1.50
2022-12-05T10:46:50.088Z,2.22
2022-12-05T10:49:20.098Z,1.70
2022-12-05T10:51:50.335Z,2.00
2022-12-05T10:54:22.200Z,1.70
2022-12-05T10:56:51.966Z,1.45
2022-12-05T10:59:22.231Z,1.40
2022-12-05T11:01:53.961Z,1.80
2022-12-05T11:04:29.801Z,1.05
2022-12-05T11:07:02.046Z,1.80
2022-12-05T11:09:33.219Z,1.63
2022-12-05T11:12:22.558Z,1.15
2022-12-05T11:15:03.729Z,2.22
2022-12-05T11:17:35.586Z,2.15
2022-12-05T11:20:14.011Z,1.60
2022-12-05T11:22:48.478Z,1.45
2022-12-05T11:25:26.635Z,1.80
2022-12-05T11:27:59.759Z,1.85
2022-12-05T11:30:31.089Z,2.03
2022-12-05T11:33:21.218Z,1.42
2022-12-05T11:35:50.527Z,1.27
2022-12-05T11:38:25.206Z,2.85
2022-12-05T11:40:58.907Z,1.92
2022-12-05T11:44:04.807Z,4.00
2022-12-05T11:46:41.148Z,4.07
2022-12-05T11:49:33.306Z,3.20
2022-12-05T11:52:09.778Z,1.13
2022-12-05T11:55:05.344Z,0.88
2022-12-05T11:57:56.177Z,1.20
2022-12-05T12:00:28.734Z,0.77
2022-12-05T12:03:33.092Z,1.50
2022-12-05T12:06:16.305Z,2.33
2022-12-05T12:08:56.478Z,1.70
2022-12-05T12:11:37.205Z,1.63
2022-12-05T12:14:15.275Z,2.13
2022-12-05T12:16:53.932Z,1.83
2022-12-05T12:19:39.884Z,2.05
2022-12-05T12:22:35.813Z,3.35
2022-12-05T12:25:23.939Z,2.38
2022-12-05T12:28:06.158Z,0.98
2022-12-05T12:30:49.162Z,0.85
2022-12-05T12:33:30.078Z,1.48
2022-12-05T12:36:06.803Z,1.50
2022-12-05T12:38:56.423Z,1.98
2022-12-05T12:41:52.932Z,1.42
2022-12-05T12:44:46.528Z,1.23
2022-12-05T12:47:22.779Z,1.73
2022-12-05T12:50:03.316Z,1.10
2022-12-05T12:52:50.577Z,1.33
2022-12-05T12:55:25.794Z,1.17
2022-12-05T12:58:07.167Z,1.20
2022-12-05T13:00:48.590Z,1.23
2022-12-05T13:03:22.739Z,0.98
2022-12-05T13:05:54.374Z,1.27
2022-12-05T13:08:28.681Z,1.23
2022-12-05T13:10:59.602Z,0.60
2022-12-05T13:13:33.644Z,1.27
2022-12-05T13:16:07.965Z,1.70
2022-12-05T13:18:36.736Z,2.25
2022-12-05T13:21:08.509Z,0.90
2022-12-05T13:23:44.893Z,1.30
2022-12-05T13:26:14.778Z,1.95
2022-12-05T13:28:51.592Z,1.52
2022-12-05T13:31:35.687Z,1.60
2022-12-05T13:34:04.099Z,1.73
2022-12-05T13:36:58.626Z,1.20
2022-12-05T13:39:44.381Z,1.02
2022-12-05T13:42:24.502Z,1.30
2022-12-05T13:44:55.958Z,1.60
2022-12-05T13:47:31.534Z,1.35
2022-12-05T13:50:10.789Z,1.60
2022-12-05T13:52:45.467Z,2.28
2022-12-05T13:55:24.189Z,1.20
2022-12-05T13:57:55.280Z,1.42
2022-12-05T14:00:32.467Z,1.63
2022-12-05T14:03:04.749Z,1.67
2022-12-05T14:05:53.318Z,2.03
2022-12-05T14:08:54.351Z,2.28
2022-12-05T14:11:23.001Z,1.40
2022-12-05T14:13:51.706Z,2.85
2022-12-05T14:16:50.732Z,1.00
2022-12-05T14:19:52.517Z,1.40
2022-12-05T14:22:51.932Z,1.30
2022-12-05T14:25:34.726Z,1.52
2022-12-05T14:28:19.392Z,1.60
2022-12-05T14:31:02.000Z,2.30
2022-12-05T14:33:30.257Z,1.55
2022-12-05T14:36:07.524Z,1.50
2022-12-05T14:38:37.945Z,1.95
2022-12-05T14:41:23.942Z,1.80
2022-12-05T14:43:54.909Z,1.60
2022-12-05T14:46:27.047Z,2.38
2022-12-05T14:48:56.184Z,2.97
2022-12-05T14:51:56.973Z,1.70
2022-12-05T14:54:26.077Z,1.55
2022-12-05T14:57:05.052Z,1.35
2022-12-05T14:59:36.522Z,2.17
2022-12-05T15:04:41.835Z,2.20
2022-12-05T15:07:15.013Z,1.50
2022-12-05T15:09:52.097Z,1.83
2022-12-05T15:12:24.442Z,1.58
2022-12-05T15:15:02.501Z,2.05
2022-12-05T15:17:38.838Z,2.20
2022-12-05T15:20:16.771Z,1.98
2022-12-05T15:22:46.446Z,2.50
2022-12-05T15:25:24.611Z,1.20
2022-12-05T15:28:05.357Z,1.45
2022-12-05T15:30:37.498Z,1.60
2022-12-05T15:33:06.437Z,2.03
2022-12-05T15:35:35.517Z,1.40
2022-12-05T15:38:10.673Z,1.55
2022-12-05T15:40:38.790Z,1.85
2022-12-05T15:43:29.823Z,1.58
2022-12-05T15:46:23.852Z,1.60
2022-12-05T15:48:53.002Z,1.63
2022-12-05T15:51:24.687Z,2.22
2022-12-05T15:53:59.136Z,1.88
2022-12-05T15:56:30.386Z,2.70
2022-12-05T15:59:05.847Z,3.05
2022-12-05T16:01:40.833Z,2.40
2022-12-05T16:04:16.808Z,2.58
2022-12-05T16:06:48.614Z,2.47
2022-12-05T16:09:20.372Z,3.40
2022-12-05T16:11:56.024Z,2.00
2022-12-05T16:17:17.276Z,1.48
2022-12-05T16:19:49.505Z,3.70
2022-12-05T16:22:24.814Z,4.05
2022-12-05T16:25:01.188Z,7.28
2022-12-05T16:27:33.018Z,3.88
2022-12-05T16:30:22.960Z,2.30
2022-12-05T16:32:59.024Z,1.55
2022-12-05T16:35:33.986Z,1.48
2022-12-05T16:38:08.428Z,2.30
2022-12-05T16:40:38.693Z,2.25
2022-12-05T16:43:17.035Z,1.85
2022-12-05T16:45:46.705Z,1.65
2022-12-05T16:48:22.011Z,1.65
2022-12-05T16:50:51.422Z,1.48
2022-12-05T16:53:34.367Z,1.50
2022-12-05T16:56:05.875Z,1.50
2022-12-05T17:01:04.577Z,2.42
2022-12-05T17:03:34.808Z,2.42
2022-12-05T17:06:03.699Z,2.50
2022-12-05T17:08:31.937Z,1.80
2022-12-05T17:11:02.101Z,1.40
2022-12-05T17:13:32.995Z,1.60
2022-12-05T17:16:01.268Z,1.10
2022-12-05T17:18:31.702Z,1.10
2022-12-05T17:21:03.182Z,2.15
2022-12-05T17:23:31.298Z,2.25
2022-12-05T17:26:00.923Z,1.92
2022-12-05T17:28:29.173Z,1.88
2022-12-05T17:30:58.723Z,1.65
2022-12-05T17:33:26.924Z,2.70
2022-12-05T17:35:55.030Z,2.08
2022-12-05T17:38:23.432Z,1.30
2022-12-05T17:40:51.792Z,1.77
2022-12-05T17:43:24.820Z,1.88
2022-12-05T17:45:54.768Z,1.90
2022-12-05T17:48:26.493Z,1.90
2022-12-05T17:50:57.749Z,3.25
2022-12-05T17:53:26.691Z,2.38
2022-12-05T17:55:54.978Z,2.63
2022-12-05T17:58:23.047Z,1.95
2022-12-05T18:00:51.181Z,1.73
2022-12-05T18:03:19.802Z,2.97
2022-12-05T18:05:49.529Z,3.15
2022-12-05T18:08:18.202Z,1.35
2022-12-05T18:10:48.416Z,1.10
2022-12-05T18:13:17.675Z,1.63
2022-12-05T18:15:48.771Z,1.30
2022-12-05T18:18:18.320Z,1.20
2022-12-05T18:20:46.731Z,2.05
2022-12-05T18:23:16.407Z,2.20
2022-12-05T18:25:44.536Z,2.33
2022-12-05T18:28:17.768Z,1.48
2022-12-05T18:30:47.894Z,1.23
2022-12-05T18:33:16.018Z,1.55
2022-12-05T18:35:44.086Z,1.27
2022-12-05T18:38:12.549Z,1.25
2022-12-05T18:40:42.324Z,1.33
2022-12-05T18:43:10.546Z,1.50
2022-12-05T18:45:38.807Z,1.95
2022-12-05T18:48:37.772Z,1.88
2022-12-05T18:50:55.284Z,2.75
2022-12-05T18:53:23.703Z,1.48
2022-12-05T18:56:20.423Z,1.50
2022-12-05T18:58:41.883Z,1.75
2022-12-05T19:01:12.528Z,1.70
2022-12-05T19:03:41.137Z,1.77
2022-12-05T19:06:13.713Z,1.75
2022-12-05T19:08:42.170Z,1.52
2022-12-05T19:11:12.394Z,2.78
2022-12-05T19:13:40.871Z,1.60
2022-12-05T19:16:14.257Z,1.40
2022-12-05T19:18:56.172Z,1.15
2022-12-05T19:21:24.918Z,1.13
2022-12-05T19:23:53.340Z,0.98
2022-12-05T19:26:23.818Z,1.33
2022-12-05T19:28:52.070Z,1.55
2022-12-05T19:31:22.606Z,1.92
2022-12-05T19:33:52.678Z,1.45
2022-12-05T19:36:22.788Z,1.33
2022-12-05T19:38:53.137Z,1.90
2022-12-05T19:41:25.100Z,1.55
2022-12-05T19:43:54.623Z,1.70
2022-12-05T19:46:25.971Z,1.52
2022-12-05T19:48:54.435Z,1.60
2022-12-05T19:51:22.717Z,2.17
2022-12-05T19:53:51.273Z,3.05
2022-12-05T19:56:21.687Z,1.60
2022-12-05T19:58:52.448Z,1.80
2022-12-05T20:01:22.649Z,3.58
2022-12-05T20:03:52.875Z,3.20
2022-12-05T20:06:21.565Z,1.73
2022-12-05T20:08:52.491Z,1.85
2022-12-05T20:11:24.868Z,2.95
2022-12-05T20:13:56.714Z,1.17
2022-12-05T20:16:27.282Z,2.35
2022-12-05T20:18:59.055Z,1.48
2022-12-05T20:21:29.237Z,1.27
2022-12-05T20:23:59.232Z,1.08
2022-12-05T20:26:29.774Z,1.52
2022-12-05T20:29:00.817Z,1.03
2022-12-05T20:31:30.520Z,1.80
2022-12-05T20:33:59.071Z,5.15
2022-12-05T20:36:28.843Z,1.70
2022-12-05T20:38:58.257Z,1.95
2022-12-05T20:41:27.348Z,1.55
2022-12-05T20:43:57.605Z,1.90
2022-12-05T20:46:28.435Z,1.55
2022-12-05T20:48:57.408Z,2.17
2022-12-05T20:51:27.612Z,1.70
2022-12-05T20:53:56.829Z,3.03
2022-12-05T20:56:26.502Z,3.00
2022-12-05T20:58:57.100Z,6.05
2022-12-05T21:01:28.248Z,2.53
2022-12-05T21:03:57.057Z,1.50
2022-12-05T21:06:26.764Z,1.40
2022-12-05T21:08:55.316Z,1.20
2022-12-05T21:11:24.717Z,4.22
2022-12-05T21:13:52.953Z,1.50
2022-12-05T21:16:23.141Z,1.48
2022-12-05T21:18:53.461Z,1.50
2022-12-05T21:21:23.811Z,1.50
2022-12-05T21:23:55.799Z,1.38
2022-12-05T21:26:25.846Z,1.38
2022-12-05T21:28:54.704Z,1.30
2022-12-05T21:31:25.254Z,1.40
2022-12-05T21:33:57.490Z,1.50
2022-12-05T21:36:27.806Z,2.35
2022-12-05T21:38:56.727Z,1.40
2022-12-05T21:41:25.705Z,1.25
2022-12-05T21:43:56.104Z,1.70
2022-12-05T21:46:24.889Z,2.65
2022-12-05T21:48:54.906Z,1.98
2022-12-05T21:51:24.098Z,1.85
2022-12-05T21:53:52.964Z,1.48
2022-12-05T21:56:23.078Z,1.77
2022-12-05T21:58:51.704Z,1.55
2022-12-05T22:01:23.167Z,1.85
2022-12-05T22:06:22.155Z,1.77
2022-12-05T22:08:50.375Z,1.90
2022-12-05T22:11:20.549Z,1.95
2022-12-05T22:13:52.961Z,1.77
2022-12-05T22:16:21.633Z,1.58
2022-12-05T22:18:50.335Z,1.45
2022-12-05T22:21:20.734Z,1.85
2022-12-05T22:23:50.828Z,2.35
2022-12-05T22:26:20.845Z,1.50
2022-12-05T22:28:51.648Z,2.13
2022-12-05T22:31:21.433Z,1.60
2022-12-05T22:33:50.055Z,1.63
2022-12-05T22:36:20.192Z,2.10
2022-12-05T22:38:50.360Z,1.70
2022-12-05T22:41:20.063Z,1.90
2022-12-05T22:43:49.759Z,1.17
2022-12-05T22:46:20.312Z,1.63
2022-12-05T22:48:50.239Z,1.60
2022-12-05T22:51:19.709Z,1.23
2022-12-05T22:53:50.964Z,0.85
2022-12-05T22:56:20.563Z,1.20
2022-12-05T22:58:48.779Z,1.17
2022-12-05T23:01:19.013Z,1.00
2022-12-05T23:03:49.139Z,3.00
2022-12-05T23:06:18.971Z,0.90
2022-12-05T23:08:49.671Z,1.27
2022-12-05T23:11:18.846Z,0.90
2022-12-05T23:13:48.101Z,1.50
2022-12-05T23:16:20.782Z,1.55
2022-12-05T23:18:50.264Z,1.42
2022-12-05T23:21:21.446Z,1.92
2022-12-05T23:23:53.840Z,1.38
2022-12-05T23:26:24.069Z,1.40
2022-12-05T23:28:52.858Z,1.50
2022-12-05T23:31:21.695Z,1.30
2022-12-05T23:33:51.601Z,2.15
2022-12-05T23:36:20.469Z,1.60
2022-12-05T23:38:50.624Z,2.33
2022-12-05T23:41:20.807Z,0.73
2022-12-05T23:43:50.243Z,0.73
2022-12-05T23:46:21.441Z,1.27
2022-12-05T23:48:50.588Z,1.13
2022-12-05T23:51:23.804Z,0.95
2022-12-05T23:53:56.505Z,0.82
2022-12-05T23:56:27.564Z,1.20
2022-12-05T23:58:57.233Z,1.60
